sensor_id;sensor_type;location;lat;lon;timestamp;pressure;altitude;pressure_sealevel;temperature;humidity
72414;BME280;60995;52.154;4.498;2023-03-20T00:02:09;101888.06;;;9.74;72.20
72414;BME280;60995;52.154;4.498;2023-03-20T00:04:33;101875.06;;;9.67;72.57
72414;BME280;60995;52.154;4.498;2023-03-20T00:06:49;101880.34;;;9.55;73.45
72414;BME280;60995;52.154;4.498;2023-03-20T00:09:08;101892.72;;;9.59;73.96
72414;BME280;60995;52.154;4.498;2023-03-20T00:11:33;101901.56;;;9.49;74.18
72414;BME280;60995;52.154;4.498;2023-03-20T00:13:53;101897.66;;;9.53;74.97
72414;BME280;60995;52.154;4.498;2023-03-20T00:16:13;101901.56;;;9.49;74.94
72414;BME280;60995;52.154;4.498;2023-03-20T00:18:30;101912.84;;;9.55;73.91
72414;BME280;60995;52.154;4.498;2023-03-20T00:20:46;101910.03;;;9.44;74.57
72414;BME280;60995;52.154;4.498;2023-03-20T00:23:09;101928.09;;;9.43;74.83
72414;BME280;60995;52.154;4.498;2023-03-20T00:25:26;101922.34;;;9.35;75.64
72414;BME280;60995;52.154;4.498;2023-03-20T00:27:46;101924.81;;;9.38;75.64
72414;BME280;60995;52.154;4.498;2023-03-20T00:32:57;101911.53;;;9.48;75.56
72414;BME280;60995;52.154;4.498;2023-03-20T00:35:18;101903.88;;;9.27;75.87
72414;BME280;60995;52.154;4.498;2023-03-20T00:37:42;101907.81;;;9.36;75.61
72414;BME280;60995;52.154;4.498;2023-03-20T00:39:59;101902.59;;;9.33;75.29
72414;BME280;60995;52.154;4.498;2023-03-20T00:42:21;101895.25;;;9.35;75.76
72414;BME280;60995;52.154;4.498;2023-03-20T00:44:39;101901.28;;;9.26;75.44
72414;BME280;60995;52.154;4.498;2023-03-20T00:47:10;101907.31;;;9.17;75.39
72414;BME280;60995;52.154;4.498;2023-03-20T00:49:44;101903.50;;;9.06;75.85
72414;BME280;60995;52.154;4.498;2023-03-20T00:52:04;101894.75;;;9.16;75.76
72414;BME280;60995;52.154;4.498;2023-03-20T00:54:22;101888.78;;;9.10;75.99
72414;BME280;60995;52.154;4.498;2023-03-20T00:56:42;101881.09;;;9.17;75.38
72414;BME280;60995;52.154;4.498;2023-03-20T00:59:03;101888.25;;;8.91;75.76
72414;BME280;60995;52.154;4.498;2023-03-20T01:01:20;101886.28;;;9.07;75.39
72414;BME280;60995;52.154;4.498;2023-03-20T01:03:36;101891.88;;;9.04;75.42
72414;BME280;60995;52.154;4.498;2023-03-20T01:05:58;101894.91;;;9.00;75.26
72414;BME280;60995;52.154;4.498;2023-03-20T01:08:20;101890.97;;;8.91;75.48
72414;BME280;60995;52.154;4.498;2023-03-20T01:10:39;101888.22;;;9.05;75.43
72414;BME280;60995;52.154;4.498;2023-03-20T01:13:17;101879.53;;;9.00;75.84
72414;BME280;60995;52.154;4.498;2023-03-20T01:15:38;101888.50;;;9.01;75.74
72414;BME280;60995;52.154;4.498;2023-03-20T01:17:54;101900.38;;;9.13;76.61
72414;BME280;60995;52.154;4.498;2023-03-20T01:23:47;101927.69;;;8.95;75.81
72414;BME280;60995;52.154;4.498;2023-03-20T01:28:52;101937.72;;;9.07;76.16
72414;BME280;60995;52.154;4.498;2023-03-20T01:31:09;101935.59;;;8.98;76.52
72414;BME280;60995;52.154;4.498;2023-03-20T01:33:25;101935.59;;;8.98;75.44
72414;BME280;60995;52.154;4.498;2023-03-20T01:35:44;101935.19;;;9.04;75.51
72414;BME280;60995;52.154;4.498;2023-03-20T01:38:02;101937.81;;;9.33;75.10
72414;BME280;60995;52.154;4.498;2023-03-20T01:40:57;101935.94;;;9.21;74.51
72414;BME280;60995;52.154;4.498;2023-03-20T01:43:23;101935.72;;;9.24;74.65
72414;BME280;60995;52.154;4.498;2023-03-20T01:45:48;101922.00;;;9.27;74.58
72414;BME280;60995;52.154;4.498;2023-03-20T01:48:14;101917.44;;;9.27;73.70
72414;BME280;60995;52.154;4.498;2023-03-20T01:50:33;101919.28;;;9.27;74.26
72414;BME280;60995;52.154;4.498;2023-03-20T01:52:54;101920.53;;;9.21;74.00
72414;BME280;60995;52.154;4.498;2023-03-20T01:55:16;101916.41;;;9.43;73.20
72414;BME280;60995;52.154;4.498;2023-03-20T01:57:32;101908.75;;;9.63;73.01
72414;BME280;60995;52.154;4.498;2023-03-20T01:59:52;101911.34;;;9.24;72.85
72414;BME280;60995;52.154;4.498;2023-03-20T02:02:18;101906.03;;;9.22;73.12
72414;BME280;60995;52.154;4.498;2023-03-20T02:04:40;101899.16;;;9.31;73.06
72414;BME280;60995;52.154;4.498;2023-03-20T02:06:59;101898.75;;;9.37;72.52
72414;BME280;60995;52.154;4.498;2023-03-20T02:09:17;101893.91;;;9.28;72.72
72414;BME280;60995;52.154;4.498;2023-03-20T02:11:35;101878.63;;;9.14;73.88
72414;BME280;60995;52.154;4.498;2023-03-20T02:13:54;101868.75;;;9.13;74.54
72414;BME280;60995;52.154;4.498;2023-03-20T02:16:15;101879.81;;;9.23;74.18
72414;BME280;60995;52.154;4.498;2023-03-20T02:18:33;101877.22;;;8.94;74.75
72414;BME280;60995;52.154;4.498;2023-03-20T02:26:25;101848.13;;;8.56;76.21
72414;BME280;60995;52.154;4.498;2023-03-20T02:32:23;101846.81;;;8.76;75.92
72414;BME280;60995;52.154;4.498;2023-03-20T02:38:19;101861.22;;;8.76;76.46
72414;BME280;60995;52.154;4.498;2023-03-20T02:49:04;101847.75;;;8.89;75.44
72414;BME280;60995;52.154;4.498;2023-03-20T02:51:56;101848.38;;;8.80;75.22
72414;BME280;60995;52.154;4.498;2023-03-20T02:57:05;101844.16;;;8.89;74.87
72414;BME280;60995;52.154;4.498;2023-03-20T03:02:37;101850.03;;;8.96;74.48
72414;BME280;60995;52.154;4.498;2023-03-20T03:05:16;101835.31;;;8.87;74.91
72414;BME280;60995;52.154;4.498;2023-03-20T03:07:41;101841.63;;;9.00;74.88
72414;BME280;60995;52.154;4.498;2023-03-20T03:10:08;101844.13;;;9.03;75.22
72414;BME280;60995;52.154;4.498;2023-03-20T03:12:42;101836.44;;;8.97;75.00
72414;BME280;60995;52.154;4.498;2023-03-20T03:15:06;101839.03;;;8.99;75.26
72414;BME280;60995;52.154;4.498;2023-03-20T03:17:33;101824.81;;;8.95;74.95
72414;BME280;60995;52.154;4.498;2023-03-20T03:19:57;101817.88;;;8.64;75.79
72414;BME280;60995;52.154;4.498;2023-03-20T03:22:21;101816.41;;;8.72;75.86
72414;BME280;60995;52.154;4.498;2023-03-20T03:24:48;101824.88;;;8.81;75.66
72414;BME280;60995;52.154;4.498;2023-03-20T03:27:32;101824.03;;;8.80;75.52
72414;BME280;60995;52.154;4.498;2023-03-20T03:30:03;101817.25;;;8.73;75.00
72414;BME280;60995;52.154;4.498;2023-03-20T03:32:31;101820.22;;;8.55;75.32
72414;BME280;60995;52.154;4.498;2023-03-20T03:34:56;101820.06;;;8.71;75.95
72414;BME280;60995;52.154;4.498;2023-03-20T03:37:25;101807.13;;;8.76;75.31
72414;BME280;60995;52.154;4.498;2023-03-20T03:39:52;101805.78;;;8.69;75.06
72414;BME280;60995;52.154;4.498;2023-03-20T03:42:23;101798.44;;;8.71;75.18
72414;BME280;60995;52.154;4.498;2023-03-20T03:47:22;101791.22;;;8.57;76.18
72414;BME280;60995;52.154;4.498;2023-03-20T03:49:49;101786.25;;;8.64;76.44
72414;BME280;60995;52.154;4.498;2023-03-20T03:52:19;101785.72;;;8.44;75.72
72414;BME280;60995;52.154;4.498;2023-03-20T03:54:43;101800.72;;;8.50;76.45
72414;BME280;60995;52.154;4.498;2023-03-20T03:57:04;101794.25;;;8.53;76.52
72414;BME280;60995;52.154;4.498;2023-03-20T03:59:29;101785.47;;;8.49;76.55
72414;BME280;60995;52.154;4.498;2023-03-20T04:01:53;101779.94;;;8.51;77.04
72414;BME280;60995;52.154;4.498;2023-03-20T04:04:14;101789.41;;;8.58;76.46
72414;BME280;60995;52.154;4.498;2023-03-20T04:06:31;101790.53;;;8.54;76.24
72414;BME280;60995;52.154;4.498;2023-03-20T04:08:48;101790.81;;;8.64;76.23
72414;BME280;60995;52.154;4.498;2023-03-20T04:11:05;101794.03;;;8.56;76.73
72414;BME280;60995;52.154;4.498;2023-03-20T04:13:22;101797.31;;;8.61;76.38
72414;BME280;60995;52.154;4.498;2023-03-20T04:15:38;101798.75;;;8.52;76.41
72414;BME280;60995;52.154;4.498;2023-03-20T04:17:54;101806.19;;;8.34;76.96
72414;BME280;60995;52.154;4.498;2023-03-20T04:20:11;101807.34;;;8.59;76.49
72414;BME280;60995;52.154;4.498;2023-03-20T04:22:28;101796.16;;;8.51;76.37
72414;BME280;60995;52.154;4.498;2023-03-20T04:24:46;101801.13;;;8.71;76.39
72414;BME280;60995;52.154;4.498;2023-03-20T04:27:02;101791.22;;;8.57;76.14
72414;BME280;60995;52.154;4.498;2023-03-20T04:29:19;101789.75;;;8.66;76.09
72414;BME280;60995;52.154;4.498;2023-03-20T04:31:35;101792.84;;;8.60;76.35
72414;BME280;60995;52.154;4.498;2023-03-20T04:33:51;101783.94;;;8.72;76.02
72414;BME280;60995;52.154;4.498;2023-03-20T04:36:08;101782.41;;;8.68;76.02
72414;BME280;60995;52.154;4.498;2023-03-20T04:38:25;101772.75;;;8.64;75.98
72414;BME280;60995;52.154;4.498;2023-03-20T04:40:43;101769.56;;;8.57;75.81
72414;BME280;60995;52.154;4.498;2023-03-20T04:43:00;101773.31;;;8.69;75.93
72414;BME280;60995;52.154;4.498;2023-03-20T04:45:16;101777.81;;;8.56;75.93
72414;BME280;60995;52.154;4.498;2023-03-20T04:47:32;101772.34;;;8.70;75.67
72414;BME280;60995;52.154;4.498;2023-03-20T04:49:48;101776.28;;;8.79;76.20
72414;BME280;60995;52.154;4.498;2023-03-20T04:52:05;101765.75;;;8.74;75.64
72414;BME280;60995;52.154;4.498;2023-03-20T04:54:21;101764.06;;;8.86;75.84
72414;BME280;60995;52.154;4.498;2023-03-20T04:56:38;101760.56;;;8.71;75.92
72414;BME280;60995;52.154;4.498;2023-03-20T04:58:54;101754.13;;;8.45;76.49
72414;BME280;60995;52.154;4.498;2023-03-20T05:01:10;101762.75;;;8.52;76.62
72414;BME280;60995;52.154;4.498;2023-03-20T05:03:26;101758.56;;;8.60;76.97
72414;BME280;60995;52.154;4.498;2023-03-20T05:05:43;101761.63;;;8.69;76.82
72414;BME280;60995;52.154;4.498;2023-03-20T05:07:59;101769.34;;;8.75;76.69
72414;BME280;60995;52.154;4.498;2023-03-20T05:10:16;101767.88;;;8.69;76.32
72414;BME280;60995;52.154;4.498;2023-03-20T05:12:32;101765.09;;;8.71;76.90
72414;BME280;60995;52.154;4.498;2023-03-20T05:14:48;101761.84;;;8.78;76.31
72414;BME280;60995;52.154;4.498;2023-03-20T05:17:04;101767.53;;;8.61;76.84
72414;BME280;60995;52.154;4.498;2023-03-20T05:19:21;101777.69;;;8.85;75.89
72414;BME280;60995;52.154;4.498;2023-03-20T05:21:37;101783.94;;;8.72;76.19
72414;BME280;60995;52.154;4.498;2023-03-20T05:23:53;101765.28;;;8.68;77.17
72414;BME280;60995;52.154;4.498;2023-03-20T05:26:09;101769.63;;;8.70;76.70
72414;BME280;60995;52.154;4.498;2023-03-20T05:28:26;101760.78;;;8.68;76.75
72414;BME280;60995;52.154;4.498;2023-03-20T05:30:42;101767.75;;;8.85;76.43
72414;BME280;60995;52.154;4.498;2023-03-20T05:32:59;101765.16;;;8.97;75.67
72414;BME280;60995;52.154;4.498;2023-03-20T05:35:15;101767.75;;;8.98;75.90
72414;BME280;60995;52.154;4.498;2023-03-20T05:37:31;101765.00;;;8.72;76.21
72414;BME280;60995;52.154;4.498;2023-03-20T05:39:47;101771.16;;;8.74;76.49
72414;BME280;60995;52.154;4.498;2023-03-20T05:42:04;101762.16;;;9.01;75.86
72414;BME280;60995;52.154;4.498;2023-03-20T05:44:20;101769.78;;;8.82;75.99
72414;BME280;60995;52.154;4.498;2023-03-20T05:46:37;101765.56;;;8.77;76.34
72414;BME280;60995;52.154;4.498;2023-03-20T05:48:53;101766.53;;;8.76;76.48
72414;BME280;60995;52.154;4.498;2023-03-20T05:51:09;101762.69;;;8.66;76.75
72414;BME280;60995;52.154;4.498;2023-03-20T05:53:26;101772.50;;;8.82;76.64
72414;BME280;60995;52.154;4.498;2023-03-20T05:55:42;101772.78;;;8.77;76.26
72414;BME280;60995;52.154;4.498;2023-03-20T05:57:59;101776.00;;;8.69;76.81
72414;BME280;60995;52.154;4.498;2023-03-20T06:00:16;101775.03;;;8.70;76.56
72414;BME280;60995;52.154;4.498;2023-03-20T06:02:33;101777.34;;;8.76;76.63
72414;BME280;60995;52.154;4.498;2023-03-20T06:04:49;101780.16;;;8.75;76.79
72414;BME280;60995;52.154;4.498;2023-03-20T06:07:05;101782.06;;;9.00;76.38
72414;BME280;60995;52.154;4.498;2023-03-20T06:09:22;101779.69;;;9.08;75.56
72414;BME280;60995;52.154;4.498;2023-03-20T06:11:38;101782.44;;;8.81;76.48
72414;BME280;60995;52.154;4.498;2023-03-20T06:13:54;101779.22;;;8.89;76.40
72414;BME280;60995;52.154;4.498;2023-03-20T06:16:12;101790.47;;;8.83;77.22
72414;BME280;60995;52.154;4.498;2023-03-20T06:18:29;101785.50;;;8.89;76.43
72414;BME280;60995;52.154;4.498;2023-03-20T06:20:45;101793.19;;;8.96;76.06
72414;BME280;60995;52.154;4.498;2023-03-20T06:23:01;101790.75;;;9.05;75.87
72414;BME280;60995;52.154;4.498;2023-03-20T06:25:18;101787.81;;;9.08;75.88
72414;BME280;60995;52.154;4.498;2023-03-20T06:27:35;101792.91;;;9.00;75.76
72414;BME280;60995;52.154;4.498;2023-03-20T06:29:51;101798.75;;;9.07;75.75
72414;BME280;60995;52.154;4.498;2023-03-20T06:32:08;101794.63;;;9.01;75.55
72414;BME280;60995;52.154;4.498;2023-03-20T06:34:25;101796.78;;;8.96;75.71
72414;BME280;60995;52.154;4.498;2023-03-20T06:36:42;101801.50;;;9.20;75.14
72414;BME280;60995;52.154;4.498;2023-03-20T06:38:58;101797.28;;;9.16;75.17
72414;BME280;60995;52.154;4.498;2023-03-20T06:41:15;101801.66;;;9.31;74.98
72414;BME280;60995;52.154;4.498;2023-03-20T06:43:31;101797.50;;;9.13;74.88
72414;BME280;60995;52.154;4.498;2023-03-20T06:45:47;101801.16;;;9.12;75.44
72414;BME280;60995;52.154;4.498;2023-03-20T06:48:07;101803.53;;;9.16;74.85
72414;BME280;60995;52.154;4.498;2023-03-20T06:50:24;101807.47;;;9.25;74.32
72414;BME280;60995;52.154;4.498;2023-03-20T06:52:40;101808.31;;;9.13;74.45
72414;BME280;60995;52.154;4.498;2023-03-20T06:54:57;101804.88;;;9.23;74.92
72414;BME280;60995;52.154;4.498;2023-03-20T06:57:13;101813.84;;;9.24;74.14
72414;BME280;60995;52.154;4.498;2023-03-20T06:59:33;101800.69;;;9.32;74.27
72414;BME280;60995;52.154;4.498;2023-03-20T07:01:49;101804.25;;;9.46;73.53
72414;BME280;60995;52.154;4.498;2023-03-20T07:04:05;101799.03;;;9.42;73.81
72414;BME280;60995;52.154;4.498;2023-03-20T07:06:22;101812.03;;;9.24;74.13
72414;BME280;60995;52.154;4.498;2023-03-20T07:08:38;101804.66;;;9.26;73.87
72414;BME280;60995;52.154;4.498;2023-03-20T07:10:55;101804.03;;;9.49;73.06
72414;BME280;60995;52.154;4.498;2023-03-20T07:13:11;101803.38;;;9.58;72.79
72414;BME280;60995;52.154;4.498;2023-03-20T07:15:29;101804.91;;;9.36;73.10
72414;BME280;60995;52.154;4.498;2023-03-20T07:17:46;101809.56;;;9.47;73.21
72414;BME280;60995;52.154;4.498;2023-03-20T07:20:03;101823.78;;;9.51;72.88
72414;BME280;60995;52.154;4.498;2023-03-20T07:22:22;101802.94;;;9.51;72.87
72414;BME280;60995;52.154;4.498;2023-03-20T07:24:40;101811.63;;;9.69;72.42
72414;BME280;60995;52.154;4.498;2023-03-20T07:26:57;101811.31;;;9.48;72.70
72414;BME280;60995;52.154;4.498;2023-03-20T07:29:13;101810.72;;;9.30;73.76
72414;BME280;60995;52.154;4.498;2023-03-20T07:31:30;101818.09;;;9.28;74.21
72414;BME280;60995;52.154;4.498;2023-03-20T07:33:47;101823.09;;;9.34;74.37
72414;BME280;60995;52.154;4.498;2023-03-20T07:36:03;101822.41;;;9.18;74.69
72414;BME280;60995;52.154;4.498;2023-03-20T07:38:21;101818.09;;;9.28;74.97
72414;BME280;60995;52.154;4.498;2023-03-20T07:40:38;101815.38;;;9.28;75.42
72414;BME280;60995;52.154;4.498;2023-03-20T07:42:54;101827.97;;;9.02;76.04
72414;BME280;60995;52.154;4.498;2023-03-20T07:45:10;101819.75;;;9.03;76.38
72414;BME280;60995;52.154;4.498;2023-03-20T07:47:27;101832.41;;;9.30;76.23
72414;BME280;60995;52.154;4.498;2023-03-20T07:49:43;101832.19;;;9.33;76.40
72414;BME280;60995;52.154;4.498;2023-03-20T07:52:00;101829.97;;;9.13;77.21
72414;BME280;60995;52.154;4.498;2023-03-20T07:54:16;101830.88;;;9.26;77.21
72414;BME280;60995;52.154;4.498;2023-03-20T07:56:33;101833.31;;;9.16;77.25
72414;BME280;60995;52.154;4.498;2023-03-20T07:58:49;101832.41;;;9.30;77.33
72414;BME280;60995;52.154;4.498;2023-03-20T08:01:05;101827.53;;;9.35;77.52
72414;BME280;60995;52.154;4.498;2023-03-20T08:03:22;101836.75;;;9.33;77.49
72414;BME280;60995;52.154;4.498;2023-03-20T08:05:38;101830.81;;;9.40;77.96
72414;BME280;60995;52.154;4.498;2023-03-20T08:07:55;101830.47;;;9.32;77.87
72414;BME280;60995;52.154;4.498;2023-03-20T08:10:11;101828.16;;;9.26;78.16
72414;BME280;60995;52.154;4.498;2023-03-20T08:12:27;101825.13;;;9.31;77.86
72414;BME280;60995;52.154;4.498;2023-03-20T08:14:44;101825.91;;;9.33;77.99
72414;BME280;60995;52.154;4.498;2023-03-20T08:17:00;101821.34;;;9.33;78.02
72414;BME280;60995;52.154;4.498;2023-03-20T08:19:17;101834.06;;;9.46;78.00
72414;BME280;60995;52.154;4.498;2023-03-20T08:21:33;101827.88;;;9.43;78.64
72414;BME280;60995;52.154;4.498;2023-03-20T08:23:49;101825.53;;;9.52;78.55
72414;BME280;60995;52.154;4.498;2023-03-20T08:26:05;101828.31;;;9.37;78.79
72414;BME280;60995;52.154;4.498;2023-03-20T08:28:22;101829.19;;;9.51;78.97
72414;BME280;60995;52.154;4.498;2023-03-20T08:30:39;101830.47;;;9.32;78.41
72414;BME280;60995;52.154;4.498;2023-03-20T08:32:55;101835.88;;;9.32;79.09
72414;BME280;60995;52.154;4.498;2023-03-20T08:35:13;101824.81;;;9.35;78.33
72414;BME280;60995;52.154;4.498;2023-03-20T08:37:29;101826.81;;;9.59;78.58
72414;BME280;60995;52.154;4.498;2023-03-20T08:39:46;101823.34;;;9.83;77.76
72414;BME280;60995;52.154;4.498;2023-03-20T08:42:02;101822.38;;;9.84;77.85
72414;BME280;60995;52.154;4.498;2023-03-20T08:44:18;101822.47;;;9.69;77.39
72414;BME280;60995;52.154;4.498;2023-03-20T08:46:35;101827.25;;;10.04;77.42
72414;BME280;60995;52.154;4.498;2023-03-20T08:48:51;101817.19;;;9.93;76.94
72414;BME280;60995;52.154;4.498;2023-03-20T08:51:07;101814.25;;;9.84;78.21
72414;BME280;60995;52.154;4.498;2023-03-20T08:53:24;101822.06;;;10.01;77.57
72414;BME280;60995;52.154;4.498;2023-03-20T08:55:46;101815.97;;;9.72;77.43
72414;BME280;60995;52.154;4.498;2023-03-20T08:58:04;101808.56;;;10.13;77.40
72414;BME280;60995;52.154;4.498;2023-03-20T09:00:21;101814.63;;;10.29;76.75
72414;BME280;60995;52.154;4.498;2023-03-20T09:02:40;101814.56;;;9.92;77.28
72414;BME280;60995;52.154;4.498;2023-03-20T09:04:57;101808.25;;;10.17;76.58
72414;BME280;60995;52.154;4.498;2023-03-20T09:07:13;101803.91;;;10.65;75.83
72414;BME280;60995;52.154;4.498;2023-03-20T09:09:30;101820.06;;;10.29;75.81
72414;BME280;60995;52.154;4.498;2023-03-20T09:11:47;101813.56;;;10.06;76.74
72414;BME280;60995;52.154;4.498;2023-03-20T09:14:03;101813.53;;;10.32;76.44
72414;BME280;60995;52.154;4.498;2023-03-20T09:16:19;101807.59;;;10.39;76.18
72414;BME280;60995;52.154;4.498;2023-03-20T09:18:36;101813.97;;;10.51;76.20
72414;BME280;60995;52.154;4.498;2023-03-20T09:20:52;101812.94;;;9.89;77.36
72414;BME280;60995;52.154;4.498;2023-03-20T09:23:08;101815.00;;;9.73;78.16
72414;BME280;60995;52.154;4.498;2023-03-20T09:25:25;101818.16;;;9.67;78.29
72414;BME280;60995;52.154;4.498;2023-03-20T09:27:41;101813.28;;;9.72;78.78
72414;BME280;60995;52.154;4.498;2023-03-20T09:29:57;101813.94;;;9.75;79.63
72414;BME280;60995;52.154;4.498;2023-03-20T09:32:14;101808.38;;;9.90;79.00
72414;BME280;60995;52.154;4.498;2023-03-20T09:34:31;101818.47;;;9.88;79.39
72414;BME280;60995;52.154;4.498;2023-03-20T09:36:48;101822.69;;;9.92;78.61
72414;BME280;60995;52.154;4.498;2023-03-20T09:39:04;101825.94;;;9.58;80.11
72414;BME280;60995;52.154;4.498;2023-03-20T09:41:23;101811.34;;;9.87;79.72
72414;BME280;60995;52.154;4.498;2023-03-20T09:48:48;101810.88;;;9.80;80.21
72414;BME280;60995;52.154;4.498;2023-03-20T09:54:21;101816.28;;;9.93;80.39
72414;BME280;60995;52.154;4.498;2023-03-20T09:56:42;101814.03;;;9.87;79.64
72414;BME280;60995;52.154;4.498;2023-03-20T09:59:02;101810.31;;;10.01;79.95
72414;BME280;60995;52.154;4.498;2023-03-20T10:01:34;101809.78;;;9.83;80.47
72414;BME280;60995;52.154;4.498;2023-03-20T10:04:13;101809.91;;;10.07;80.11
72414;BME280;60995;52.154;4.498;2023-03-20T10:06:33;101805.72;;;10.27;79.57
72414;BME280;60995;52.154;4.498;2023-03-20T10:08:50;101804.22;;;10.10;79.57
72414;BME280;60995;52.154;4.498;2023-03-20T10:14:05;101811.13;;;10.53;78.94
72414;BME280;60995;52.154;4.498;2023-03-20T10:16:33;101811.78;;;10.56;78.70
72414;BME280;60995;52.154;4.498;2023-03-20T10:19:29;101803.16;;;10.13;80.19
72414;BME280;60995;52.154;4.498;2023-03-20T10:21:52;101798.88;;;10.47;79.93
72414;BME280;60995;52.154;4.498;2023-03-20T10:24:35;101803.94;;;10.52;78.23
72414;BME280;60995;52.154;4.498;2023-03-20T10:26:57;101803.91;;;10.40;78.28
72414;BME280;60995;52.154;4.498;2023-03-20T10:41:53;101787.41;;;10.18;79.62
72414;BME280;60995;52.154;4.498;2023-03-20T10:44:24;101783.03;;;9.91;80.47
72414;BME280;60995;52.154;4.498;2023-03-20T10:47:07;101787.22;;;10.08;80.49
72414;BME280;60995;52.154;4.498;2023-03-20T10:49:37;101788.63;;;10.01;81.26
72414;BME280;60995;52.154;4.498;2023-03-20T10:52:09;101785.59;;;10.05;80.94
72414;BME280;60995;52.154;4.498;2023-03-20T10:54:34;101788.16;;;10.33;80.34
72414;BME280;60995;52.154;4.498;2023-03-20T10:56:56;101785.47;;;10.20;80.57
72414;BME280;60995;52.154;4.498;2023-03-20T10:59:25;101786.84;;;10.25;80.87
72414;BME280;60995;52.154;4.498;2023-03-20T11:01:43;101795.28;;;10.34;81.15
72414;BME280;60995;52.154;4.498;2023-03-20T11:04:00;101782.53;;;10.36;80.25
72414;BME280;60995;52.154;4.498;2023-03-20T11:06:26;101791.88;;;10.19;80.56
72414;BME280;60995;52.154;4.498;2023-03-20T11:08:49;101775.03;;;10.26;80.92
72414;BME280;60995;52.154;4.498;2023-03-20T11:11:08;101784.25;;;10.37;80.90
72414;BME280;60995;52.154;4.498;2023-03-20T11:14:00;101771.75;;;10.34;80.55
72414;BME280;60995;52.154;4.498;2023-03-20T11:16:10;101780.88;;;10.33;80.76
72414;BME280;60995;52.154;4.498;2023-03-20T11:18:33;101765.16;;;10.25;81.44
72414;BME280;60995;52.154;4.498;2023-03-20T11:20:52;101771.63;;;10.49;81.08
72414;BME280;60995;52.154;4.498;2023-03-20T11:23:15;101764.84;;;10.30;81.67
72414;BME280;60995;52.154;4.498;2023-03-20T11:25:37;101761.16;;;10.31;81.26
72414;BME280;60995;52.154;4.498;2023-03-20T11:28:37;101767.47;;;10.19;81.76
72414;BME280;60995;52.154;4.498;2023-03-20T11:30:58;101759.16;;;10.33;82.30
72414;BME280;60995;52.154;4.498;2023-03-20T11:33:18;101770.13;;;10.32;82.06
72414;BME280;60995;52.154;4.498;2023-03-20T11:35:34;101769.38;;;10.42;81.58
72414;BME280;60995;52.154;4.498;2023-03-20T11:37:53;101767.84;;;9.88;82.36
72414;BME280;60995;52.154;4.498;2023-03-20T11:40:32;101772.59;;;10.10;82.92
72414;BME280;60995;52.154;4.498;2023-03-20T11:45:17;101771.72;;;9.97;83.29
72414;BME280;60995;52.154;4.498;2023-03-20T11:47:34;101767.53;;;10.30;82.86
72414;BME280;60995;52.154;4.498;2023-03-20T11:49:59;101773.41;;;10.24;82.62
72414;BME280;60995;52.154;4.498;2023-03-20T11:52:28;101770.47;;;10.27;83.27
72414;BME280;60995;52.154;4.498;2023-03-20T11:54:53;101762.53;;;10.50;82.70
72414;BME280;60995;52.154;4.498;2023-03-20T11:57:42;101762.97;;;10.43;82.79
72414;BME280;60995;52.154;4.498;2023-03-20T12:02:39;101754.13;;;10.16;83.69
72414;BME280;60995;52.154;4.498;2023-03-20T12:04:59;101769.28;;;10.31;83.54
72414;BME280;60995;52.154;4.498;2023-03-20T12:07:27;101761.22;;;10.42;83.42
72414;BME280;60995;52.154;4.498;2023-03-20T12:09:56;101746.94;;;10.27;84.20
72414;BME280;60995;52.154;4.498;2023-03-20T12:12:42;101749.66;;;10.27;84.39
72414;BME280;60995;52.154;4.498;2023-03-20T12:17:33;101753.75;;;10.33;83.74
72414;BME280;60995;52.154;4.498;2023-03-20T12:20:00;101756.28;;;10.23;84.39
72414;BME280;60995;52.154;4.498;2023-03-20T12:22:37;101754.66;;;10.21;84.44
72414;BME280;60995;52.154;4.498;2023-03-20T12:25:20;101745.91;;;10.41;83.97
72414;BME280;60995;52.154;4.498;2023-03-20T12:27:44;101749.66;;;10.27;84.17
72414;BME280;60995;52.154;4.498;2023-03-20T12:30:13;101742.75;;;10.48;83.85
72414;BME280;60995;52.154;4.498;2023-03-20T12:32:43;101740.72;;;10.38;83.74
72414;BME280;60995;52.154;4.498;2023-03-20T12:35:18;101742.69;;;10.36;84.09
72414;BME280;60995;52.154;4.498;2023-03-20T12:37:46;101735.19;;;10.27;85.15
72414;BME280;60995;52.154;4.498;2023-03-20T12:40:03;101738.91;;;10.26;85.41
72414;BME280;60995;52.154;4.498;2023-03-20T12:45:19;101722.97;;;10.21;85.55
72414;BME280;60995;52.154;4.498;2023-03-20T12:50:46;101721.50;;;10.04;85.33
72414;BME280;60995;52.154;4.498;2023-03-20T12:53:34;101716.97;;;10.29;85.65
72414;BME280;60995;52.154;4.498;2023-03-20T12:56:20;101720.50;;;10.18;85.98
72414;BME280;60995;52.154;4.498;2023-03-20T13:01:21;101711.41;;;10.06;86.02
72414;BME280;60995;52.154;4.498;2023-03-20T13:14:37;101713.59;;;10.38;86.42
72414;BME280;60995;52.154;4.498;2023-03-20T13:22:21;101704.75;;;10.23;85.83
72414;BME280;60995;52.154;4.498;2023-03-20T13:25:05;101708.75;;;10.18;86.03
72414;BME280;60995;52.154;4.498;2023-03-20T13:27:42;101705.72;;;10.22;86.00
72414;BME280;60995;52.154;4.498;2023-03-20T13:30:23;101704.63;;;10.38;85.84
72414;BME280;60995;52.154;4.498;2023-03-20T13:32:58;101699.59;;;10.45;85.40
72414;BME280;60995;52.154;4.498;2023-03-20T13:37:56;101702.88;;;10.37;85.45
72414;BME280;60995;52.154;4.498;2023-03-20T13:40:25;101710.44;;;10.45;85.94
72414;BME280;60995;52.154;4.498;2023-03-20T13:47:50;101704.03;;;10.46;86.27
72414;BME280;60995;52.154;4.498;2023-03-20T13:52:39;101700.69;;;10.42;87.01
72414;BME280;60995;52.154;4.498;2023-03-20T13:55:18;101691.19;;;10.48;86.88
72414;BME280;60995;52.154;4.498;2023-03-20T13:57:56;101687.84;;;10.44;87.52
72414;BME280;60995;52.154;4.498;2023-03-20T14:00:50;101692.00;;;10.61;86.79
72414;BME280;60995;52.154;4.498;2023-03-20T14:03:35;101688.28;;;10.51;86.59
72414;BME280;60995;52.154;4.498;2023-03-20T14:05:54;101680.59;;;10.45;86.54
72414;BME280;60995;52.154;4.498;2023-03-20T14:10:42;101686.53;;;10.50;86.52
72414;BME280;60995;52.154;4.498;2023-03-20T14:13:00;101684.34;;;10.55;86.32
72414;BME280;60995;52.154;4.498;2023-03-20T14:15:30;101686.03;;;10.45;86.97